sensor_id;sensor_type;location;lat;lon;timestamp;P1;durP1;ratioP1;P2;durP2;ratioP2
68455;SDS011;55437;55.046;38.838;2022-08-03T00:01:04;10.05;;;4.95;;
68455;SDS011;55437;55.046;38.838;2022-08-03T00:03:30;9.50;;;4.97;;
68455;SDS011;55437;55.046;38.838;2022-08-03T00:05:56;13.35;;;5.68;;
68455;SDS011;55437;55.046;38.838;2022-08-03T00:08:21;10.65;;;5.20;;
68455;SDS011;55437;55.046;38.838;2022-08-03T00:10:47;9.57;;;4.75;;
68455;SDS011;55437;55.046;38.838;2022-08-03T00:13:13;11.50;;;5.38;;
68455;SDS011;55437;55.046;38.838;2022-08-03T00:15:40;10.18;;;5.05;;
68455;SDS011;55437;55.046;38.838;2022-08-03T00:18:07;10.20;;;5.13;;
68455;SDS011;55437;55.046;38.838;2022-08-03T00:20:33;9.82;;;4.80;;
68455;SDS011;55437;55.046;38.838;2022-08-03T00:23:00;10.30;;;5.35;;
68455;SDS011;55437;55.046;38.838;2022-08-03T00:25:25;13.02;;;5.53;;
68455;SDS011;55437;55.046;38.838;2022-08-03T00:27:51;18.45;;;5.40;;
68455;SDS011;55437;55.046;38.838;2022-08-03T00:30:17;12.00;;;5.10;;
68455;SDS011;55437;55.046;38.838;2022-08-03T00:32:43;12.50;;;5.20;;
68455;SDS011;55437;55.046;38.838;2022-08-03T00:35:09;9.88;;;5.47;;
68455;SDS011;55437;55.046;38.838;2022-08-03T00:37:34;9.63;;;4.80;;
68455;SDS011;55437;55.046;38.838;2022-08-03T00:40:03;12.02;;;5.03;;
68455;SDS011;55437;55.046;38.838;2022-08-03T00:42:30;12.00;;;5.55;;
68455;SDS011;55437;55.046;38.838;2022-08-03T00:44:55;9.98;;;5.40;;
68455;SDS011;55437;55.046;38.838;2022-08-03T00:47:21;10.63;;;5.13;;
68455;SDS011;55437;55.046;38.838;2022-08-03T00:49:47;9.70;;;5.38;;
68455;SDS011;55437;55.046;38.838;2022-08-03T00:52:13;10.35;;;5.10;;
68455;SDS011;55437;55.046;38.838;2022-08-03T00:54:41;12.10;;;4.88;;
68455;SDS011;55437;55.046;38.838;2022-08-03T00:57:26;9.27;;;5.00;;
68455;SDS011;55437;55.046;38.838;2022-08-03T00:59:54;11.40;;;5.25;;
68455;SDS011;55437;55.046;38.838;2022-08-03T01:02:20;14.40;;;5.80;;
68455;SDS011;55437;55.046;38.838;2022-08-03T01:04:46;12.15;;;5.15;;
68455;SDS011;55437;55.046;38.838;2022-08-03T01:07:16;10.90;;;5.70;;
68455;SDS011;55437;55.046;38.838;2022-08-03T01:12:37;11.35;;;5.28;;
68455;SDS011;55437;55.046;38.838;2022-08-03T01:18:16;9.85;;;5.50;;
68455;SDS011;55437;55.046;38.838;2022-08-03T01:20:47;9.98;;;5.53;;
68455;SDS011;55437;55.046;38.838;2022-08-03T01:31:05;10.48;;;5.07;;
68455;SDS011;55437;55.046;38.838;2022-08-03T01:33:37;11.80;;;5.43;;
68455;SDS011;55437;55.046;38.838;2022-08-03T01:36:28;13.05;;;5.18;;
68455;SDS011;55437;55.046;38.838;2022-08-03T01:39:00;13.02;;;5.63;;
68455;SDS011;55437;55.046;38.838;2022-08-03T01:41:33;10.45;;;5.40;;
68455;SDS011;55437;55.046;38.838;2022-08-03T01:44:03;10.57;;;5.30;;
68455;SDS011;55437;55.046;38.838;2022-08-03T01:46:33;10.88;;;5.28;;
68455;SDS011;55437;55.046;38.838;2022-08-03T01:49:01;10.20;;;5.00;;
68455;SDS011;55437;55.046;38.838;2022-08-03T01:51:28;11.57;;;5.72;;
68455;SDS011;55437;55.046;38.838;2022-08-03T01:53:56;12.63;;;5.93;;
68455;SDS011;55437;55.046;38.838;2022-08-03T01:56:25;11.27;;;5.60;;
68455;SDS011;55437;55.046;38.838;2022-08-03T01:58:53;11.70;;;6.18;;
68455;SDS011;55437;55.046;38.838;2022-08-03T02:01:21;11.60;;;5.60;;
68455;SDS011;55437;55.046;38.838;2022-08-03T02:03:49;11.02;;;5.45;;
68455;SDS011;55437;55.046;38.838;2022-08-03T02:06:17;13.57;;;5.72;;
68455;SDS011;55437;55.046;38.838;2022-08-03T02:08:45;9.57;;;5.15;;
68455;SDS011;55437;55.046;38.838;2022-08-03T02:11:32;11.55;;;5.50;;
68455;SDS011;55437;55.046;38.838;2022-08-03T02:14:02;10.45;;;5.03;;
68455;SDS011;55437;55.046;38.838;2022-08-03T02:16:30;12.98;;;5.90;;
68455;SDS011;55437;55.046;38.838;2022-08-03T02:19:17;11.73;;;5.85;;
68455;SDS011;55437;55.046;38.838;2022-08-03T02:21:44;11.07;;;5.40;;
68455;SDS011;55437;55.046;38.838;2022-08-03T02:24:11;10.85;;;5.35;;
68455;SDS011;55437;55.046;38.838;2022-08-03T02:26:37;12.30;;;5.68;;
68455;SDS011;55437;55.046;38.838;2022-08-03T02:29:14;10.40;;;5.20;;
68455;SDS011;55437;55.046;38.838;2022-08-03T02:31:46;11.35;;;5.57;;
68455;SDS011;55437;55.046;38.838;2022-08-03T02:34:14;11.88;;;5.47;;
68455;SDS011;55437;55.046;38.838;2022-08-03T02:36:45;11.82;;;5.90;;
68455;SDS011;55437;55.046;38.838;2022-08-03T02:39:16;11.63;;;5.55;;
68455;SDS011;55437;55.046;38.838;2022-08-03T02:41:47;10.43;;;6.05;;
68455;SDS011;55437;55.046;38.838;2022-08-03T02:44:16;10.50;;;5.45;;
68455;SDS011;55437;55.046;38.838;2022-08-03T02:46:46;12.85;;;6.32;;
68455;SDS011;55437;55.046;38.838;2022-08-03T02:49:17;11.82;;;5.38;;
68455;SDS011;55437;55.046;38.838;2022-08-03T02:51:43;11.38;;;5.45;;
68455;SDS011;55437;55.046;38.838;2022-08-03T02:54:11;11.18;;;5.35;;
68455;SDS011;55437;55.046;38.838;2022-08-03T02:56:42;10.30;;;5.63;;
68455;SDS011;55437;55.046;38.838;2022-08-03T02:59:09;12.05;;;6.07;;
68455;SDS011;55437;55.046;38.838;2022-08-03T03:01:37;14.70;;;5.60;;
68455;SDS011;55437;55.046;38.838;2022-08-03T03:04:03;11.05;;;6.07;;
68455;SDS011;55437;55.046;38.838;2022-08-03T03:06:30;10.10;;;5.30;;
68455;SDS011;55437;55.046;38.838;2022-08-03T03:08:56;10.38;;;5.30;;
68455;SDS011;55437;55.046;38.838;2022-08-03T03:11:24;9.70;;;5.25;;
68455;SDS011;55437;55.046;38.838;2022-08-03T03:13:51;11.75;;;5.00;;
68455;SDS011;55437;55.046;38.838;2022-08-03T03:16:17;8.52;;;4.80;;
68455;SDS011;55437;55.046;38.838;2022-08-03T03:18:44;10.55;;;5.50;;
68455;SDS011;55437;55.046;38.838;2022-08-03T03:21:14;10.30;;;4.88;;
68455;SDS011;55437;55.046;38.838;2022-08-03T03:23:42;10.77;;;5.10;;
68455;SDS011;55437;55.046;38.838;2022-08-03T03:26:08;12.10;;;5.22;;
68455;SDS011;55437;55.046;38.838;2022-08-03T03:28:34;11.70;;;5.15;;
68455;SDS011;55437;55.046;38.838;2022-08-03T03:31:04;10.10;;;5.28;;
68455;SDS011;55437;55.046;38.838;2022-08-03T03:33:34;10.90;;;5.28;;
68455;SDS011;55437;55.046;38.838;2022-08-03T03:36:00;11.23;;;5.25;;
68455;SDS011;55437;55.046;38.838;2022-08-03T03:38:27;10.65;;;4.90;;
68455;SDS011;55437;55.046;38.838;2022-08-03T03:40:53;9.63;;;5.53;;
68455;SDS011;55437;55.046;38.838;2022-08-03T03:43:19;13.50;;;5.85;;
68455;SDS011;55437;55.046;38.838;2022-08-03T03:45:47;12.80;;;5.55;;
68455;SDS011;55437;55.046;38.838;2022-08-03T03:48:14;11.68;;;5.57;;
68455;SDS011;55437;55.046;38.838;2022-08-03T03:50:40;11.27;;;4.97;;
68455;SDS011;55437;55.046;38.838;2022-08-03T03:53:07;11.38;;;5.45;;
68455;SDS011;55437;55.046;38.838;2022-08-03T03:55:35;12.82;;;5.10;;
68455;SDS011;55437;55.046;38.838;2022-08-03T03:58:02;13.07;;;5.43;;
68455;SDS011;55437;55.046;38.838;2022-08-03T04:00:47;8.98;;;4.82;;
68455;SDS011;55437;55.046;38.838;2022-08-03T04:03:14;12.27;;;5.30;;
68455;SDS011;55437;55.046;38.838;2022-08-03T04:05:40;9.60;;;5.03;;
68455;SDS011;55437;55.046;38.838;2022-08-03T04:08:24;9.75;;;4.75;;
68455;SDS011;55437;55.046;38.838;2022-08-03T04:11:27;11.13;;;5.20;;
68455;SDS011;55437;55.046;38.838;2022-08-03T04:14:05;12.45;;;5.40;;
68455;SDS011;55437;55.046;38.838;2022-08-03T04:16:39;10.02;;;4.93;;
68455;SDS011;55437;55.046;38.838;2022-08-03T04:19:08;9.50;;;5.05;;
68455;SDS011;55437;55.046;38.838;2022-08-03T04:21:39;28.27;;;14.98;;
68455;SDS011;55437;55.046;38.838;2022-08-03T04:24:08;14.38;;;8.15;;
68455;SDS011;55437;55.046;38.838;2022-08-03T04:26:36;16.92;;;9.57;;
68455;SDS011;55437;55.046;38.838;2022-08-03T04:29:05;9.77;;;4.72;;
68455;SDS011;55437;55.046;38.838;2022-08-03T04:31:31;9.90;;;5.03;;
68455;SDS011;55437;55.046;38.838;2022-08-03T04:33:57;15.60;;;5.25;;
68455;SDS011;55437;55.046;38.838;2022-08-03T04:36:25;11.20;;;4.90;;
68455;SDS011;55437;55.046;38.838;2022-08-03T04:38:53;9.63;;;4.90;;
68455;SDS011;55437;55.046;38.838;2022-08-03T04:41:20;10.07;;;4.90;;
68455;SDS011;55437;55.046;38.838;2022-08-03T04:43:49;17.85;;;9.68;;
68455;SDS011;55437;55.046;38.838;2022-08-03T04:48:46;11.23;;;4.68;;
68455;SDS011;55437;55.046;38.838;2022-08-03T04:51:13;10.50;;;4.97;;
68455;SDS011;55437;55.046;38.838;2022-08-03T04:53:39;11.27;;;4.63;;
68455;SDS011;55437;55.046;38.838;2022-08-03T04:56:05;8.55;;;4.65;;
68455;SDS011;55437;55.046;38.838;2022-08-03T04:58:31;8.50;;;4.22;;
68455;SDS011;55437;55.046;38.838;2022-08-03T05:00:58;10.38;;;4.43;;
68455;SDS011;55437;55.046;38.838;2022-08-03T05:03:42;12.35;;;4.75;;
68455;SDS011;55437;55.046;38.838;2022-08-03T05:06:07;11.55;;;4.50;;
68455;SDS011;55437;55.046;38.838;2022-08-03T05:08:34;13.70;;;4.50;;
68455;SDS011;55437;55.046;38.838;2022-08-03T05:11:00;11.82;;;5.00;;
68455;SDS011;55437;55.046;38.838;2022-08-03T05:13:26;9.82;;;4.13;;
68455;SDS011;55437;55.046;38.838;2022-08-03T05:15:52;10.45;;;4.82;;
68455;SDS011;55437;55.046;38.838;2022-08-03T05:18:17;12.00;;;4.72;;
68455;SDS011;55437;55.046;38.838;2022-08-03T05:20:44;11.10;;;4.43;;
68455;SDS011;55437;55.046;38.838;2022-08-03T05:23:09;15.23;;;8.25;;
68455;SDS011;55437;55.046;38.838;2022-08-03T05:25:35;12.05;;;5.00;;
68455;SDS011;55437;55.046;38.838;2022-08-03T05:28:01;10.82;;;4.90;;
68455;SDS011;55437;55.046;38.838;2022-08-03T05:30:27;11.05;;;4.45;;
68455;SDS011;55437;55.046;38.838;2022-08-03T05:32:52;9.60;;;4.47;;
68455;SDS011;55437;55.046;38.838;2022-08-03T05:35:18;10.35;;;4.88;;
68455;SDS011;55437;55.046;38.838;2022-08-03T05:37:44;10.80;;;4.55;;
68455;SDS011;55437;55.046;38.838;2022-08-03T05:40:10;12.43;;;5.45;;
68455;SDS011;55437;55.046;38.838;2022-08-03T05:42:36;10.68;;;4.90;;
68455;SDS011;55437;55.046;38.838;2022-08-03T05:45:03;11.45;;;4.88;;
68455;SDS011;55437;55.046;38.838;2022-08-03T05:47:39;11.27;;;5.13;;
68455;SDS011;55437;55.046;38.838;2022-08-03T05:50:06;11.15;;;4.45;;
68455;SDS011;55437;55.046;38.838;2022-08-03T05:52:32;11.95;;;4.82;;
68455;SDS011;55437;55.046;38.838;2022-08-03T05:54:58;13.65;;;4.78;;
68455;SDS011;55437;55.046;38.838;2022-08-03T05:57:24;12.57;;;4.80;;
68455;SDS011;55437;55.046;38.838;2022-08-03T05:59:50;13.73;;;5.30;;
68455;SDS011;55437;55.046;38.838;2022-08-03T06:02:16;18.08;;;7.18;;
68455;SDS011;55437;55.046;38.838;2022-08-03T06:04:42;13.52;;;5.55;;
68455;SDS011;55437;55.046;38.838;2022-08-03T06:07:07;14.50;;;5.93;;
68455;SDS011;55437;55.046;38.838;2022-08-03T06:09:33;12.73;;;6.18;;
68455;SDS011;55437;55.046;38.838;2022-08-03T06:11:59;12.73;;;6.00;;
68455;SDS011;55437;55.046;38.838;2022-08-03T06:14:24;12.25;;;5.90;;
68455;SDS011;55437;55.046;38.838;2022-08-03T06:17:08;13.50;;;5.80;;
68455;SDS011;55437;55.046;38.838;2022-08-03T06:19:34;12.35;;;5.57;;
68455;SDS011;55437;55.046;38.838;2022-08-03T06:22:00;16.00;;;6.45;;
68455;SDS011;55437;55.046;38.838;2022-08-03T06:24:44;9.82;;;5.05;;
68455;SDS011;55437;55.046;38.838;2022-08-03T06:27:10;12.32;;;5.30;;
68455;SDS011;55437;55.046;38.838;2022-08-03T06:29:36;10.40;;;5.00;;
68455;SDS011;55437;55.046;38.838;2022-08-03T06:32:02;13.30;;;5.47;;
68455;SDS011;55437;55.046;38.838;2022-08-03T06:34:28;12.65;;;5.03;;
68455;SDS011;55437;55.046;38.838;2022-08-03T06:36:54;10.35;;;4.93;;
68455;SDS011;55437;55.046;38.838;2022-08-03T06:39:20;10.80;;;4.90;;
68455;SDS011;55437;55.046;38.838;2022-08-03T06:41:46;12.07;;;4.55;;
68455;SDS011;55437;55.046;38.838;2022-08-03T06:44:12;9.18;;;4.32;;
68455;SDS011;55437;55.046;38.838;2022-08-03T06:46:38;13.13;;;5.10;;
68455;SDS011;55437;55.046;38.838;2022-08-03T06:49:05;10.93;;;5.15;;
68455;SDS011;55437;55.046;38.838;2022-08-03T06:51:51;11.23;;;4.90;;
68455;SDS011;55437;55.046;38.838;2022-08-03T06:54:18;9.35;;;5.32;;
68455;SDS011;55437;55.046;38.838;2022-08-03T06:56:46;13.48;;;5.53;;
68455;SDS011;55437;55.046;38.838;2022-08-03T06:59:12;11.57;;;5.10;;
68455;SDS011;55437;55.046;38.838;2022-08-03T07:01:38;9.77;;;5.15;;
68455;SDS011;55437;55.046;38.838;2022-08-03T07:04:04;9.82;;;4.95;;
68455;SDS011;55437;55.046;38.838;2022-08-03T07:06:30;10.40;;;4.63;;
68455;SDS011;55437;55.046;38.838;2022-08-03T07:08:56;9.55;;;4.65;;
68455;SDS011;55437;55.046;38.838;2022-08-03T07:11:23;10.75;;;5.35;;
68455;SDS011;55437;55.046;38.838;2022-08-03T07:13:49;9.57;;;4.57;;
68455;SDS011;55437;55.046;38.838;2022-08-03T07:16:15;10.02;;;5.07;;
68455;SDS011;55437;55.046;38.838;2022-08-03T07:18:41;9.85;;;5.20;;
68455;SDS011;55437;55.046;38.838;2022-08-03T07:21:07;11.63;;;4.85;;
68455;SDS011;55437;55.046;38.838;2022-08-03T07:23:35;10.82;;;4.93;;
68455;SDS011;55437;55.046;38.838;2022-08-03T07:26:03;10.10;;;4.63;;
68455;SDS011;55437;55.046;38.838;2022-08-03T07:28:29;12.13;;;5.07;;
68455;SDS011;55437;55.046;38.838;2022-08-03T07:30:55;10.18;;;5.05;;
68455;SDS011;55437;55.046;38.838;2022-08-03T07:33:21;10.57;;;5.18;;
68455;SDS011;55437;55.046;38.838;2022-08-03T07:35:47;10.50;;;4.47;;
68455;SDS011;55437;55.046;38.838;2022-08-03T07:38:13;13.52;;;5.05;;
68455;SDS011;55437;55.046;38.838;2022-08-03T07:40:39;11.20;;;5.00;;
68455;SDS011;55437;55.046;38.838;2022-08-03T07:43:05;12.48;;;4.93;;
68455;SDS011;55437;55.046;38.838;2022-08-03T07:45:30;12.98;;;4.75;;
68455;SDS011;55437;55.046;38.838;2022-08-03T07:48:00;11.85;;;4.82;;
68455;SDS011;55437;55.046;38.838;2022-08-03T07:50:25;8.90;;;4.75;;
68455;SDS011;55437;55.046;38.838;2022-08-03T07:52:51;10.18;;;4.15;;
68455;SDS011;55437;55.046;38.838;2022-08-03T07:55:22;9.80;;;4.05;;
68455;SDS011;55437;55.046;38.838;2022-08-03T07:58:08;10.80;;;4.10;;
68455;SDS011;55437;55.046;38.838;2022-08-03T08:00:37;10.25;;;3.70;;
68455;SDS011;55437;55.046;38.838;2022-08-03T08:03:06;10.52;;;4.38;;
68455;SDS011;55437;55.046;38.838;2022-08-03T08:05:51;15.02;;;4.00;;
68455;SDS011;55437;55.046;38.838;2022-08-03T08:08:18;12.10;;;4.05;;
68455;SDS011;55437;55.046;38.838;2022-08-03T08:10:45;14.55;;;4.28;;
68455;SDS011;55437;55.046;38.838;2022-08-03T08:13:36;8.77;;;3.63;;
68455;SDS011;55437;55.046;38.838;2022-08-03T08:16:03;10.02;;;3.60;;
68455;SDS011;55437;55.046;38.838;2022-08-03T08:18:29;9.20;;;3.72;;
68455;SDS011;55437;55.046;38.838;2022-08-03T08:20:55;12.63;;;5.20;;
68455;SDS011;55437;55.046;38.838;2022-08-03T08:23:21;13.02;;;3.22;;
68455;SDS011;55437;55.046;38.838;2022-08-03T08:25:48;14.23;;;3.50;;
68455;SDS011;55437;55.046;38.838;2022-08-03T08:30:42;7.38;;;3.03;;
68455;SDS011;55437;55.046;38.838;2022-08-03T08:33:08;9.38;;;3.17;;
68455;SDS011;55437;55.046;38.838;2022-08-03T08:35:42;9.18;;;3.53;;
68455;SDS011;55437;55.046;38.838;2022-08-03T08:38:10;8.07;;;3.15;;
68455;SDS011;55437;55.046;38.838;2022-08-03T08:43:27;10.10;;;4.95;;
68455;SDS011;55437;55.046;38.838;2022-08-03T08:45:53;7.60;;;2.83;;
68455;SDS011;55437;55.046;38.838;2022-08-03T08:48:21;6.95;;;3.05;;
68455;SDS011;55437;55.046;38.838;2022-08-03T08:50:56;6.88;;;2.60;;
68455;SDS011;55437;55.046;38.838;2022-08-03T08:53:27;8.60;;;2.70;;
68455;SDS011;55437;55.046;38.838;2022-08-03T08:55:54;8.25;;;2.88;;
68455;SDS011;55437;55.046;38.838;2022-08-03T08:58:50;6.95;;;2.97;;
68455;SDS011;55437;55.046;38.838;2022-08-03T09:01:19;8.25;;;3.20;;
68455;SDS011;55437;55.046;38.838;2022-08-03T09:03:46;8.98;;;2.90;;
68455;SDS011;55437;55.046;38.838;2022-08-03T09:06:13;9.02;;;3.03;;
68455;SDS011;55437;55.046;38.838;2022-08-03T09:08:39;9.43;;;4.55;;
68455;SDS011;55437;55.046;38.838;2022-08-03T09:11:05;9.02;;;3.08;;
68455;SDS011;55437;55.046;38.838;2022-08-03T09:13:32;9.27;;;3.25;;
68455;SDS011;55437;55.046;38.838;2022-08-03T09:16:09;9.10;;;3.33;;
68455;SDS011;55437;55.046;38.838;2022-08-03T09:18:36;14.23;;;6.90;;
68455;SDS011;55437;55.046;38.838;2022-08-03T09:21:24;7.65;;;3.20;;
68455;SDS011;55437;55.046;38.838;2022-08-03T09:23:55;10.93;;;3.05;;
68455;SDS011;55437;55.046;38.838;2022-08-03T09:26:24;8.18;;;3.00;;
68455;SDS011;55437;55.046;38.838;2022-08-03T09:28:59;7.72;;;3.28;;
68455;SDS011;55437;55.046;38.838;2022-08-03T09:34:03;6.95;;;3.00;;
68455;SDS011;55437;55.046;38.838;2022-08-03T09:36:41;7.03;;;3.13;;
68455;SDS011;55437;55.046;38.838;2022-08-03T09:39:08;9.02;;;3.22;;
68455;SDS011;55437;55.046;38.838;2022-08-03T09:41:39;11.65;;;3.85;;
68455;SDS011;55437;55.046;38.838;2022-08-03T09:44:06;9.23;;;3.35;;
68455;SDS011;55437;55.046;38.838;2022-08-03T09:46:46;8.15;;;3.17;;
68455;SDS011;55437;55.046;38.838;2022-08-03T09:49:15;9.00;;;3.10;;
68455;SDS011;55437;55.046;38.838;2022-08-03T09:51:42;12.30;;;6.50;;
68455;SDS011;55437;55.046;38.838;2022-08-03T09:54:08;9.90;;;3.50;;
68455;SDS011;55437;55.046;38.838;2022-08-03T09:56:44;9.35;;;4.32;;
68455;SDS011;55437;55.046;38.838;2022-08-03T09:59:13;9.88;;;3.40;;
68455;SDS011;55437;55.046;38.838;2022-08-03T10:01:48;7.53;;;3.45;;
68455;SDS011;55437;55.046;38.838;2022-08-03T10:04:14;9.98;;;3.38;;
68455;SDS011;55437;55.046;38.838;2022-08-03T10:07:07;9.98;;;3.60;;
68455;SDS011;55437;55.046;38.838;2022-08-03T10:09:34;10.30;;;3.13;;
68455;SDS011;55437;55.046;38.838;2022-08-03T10:12:08;9.25;;;3.13;;
68455;SDS011;55437;55.046;38.838;2022-08-03T10:14:39;8.18;;;3.25;;
68455;SDS011;55437;55.046;38.838;2022-08-03T10:17:12;9.95;;;3.38;;
68455;SDS011;55437;55.046;38.838;2022-08-03T10:19:38;10.82;;;3.08;;
68455;SDS011;55437;55.046;38.838;2022-08-03T10:22:09;7.25;;;3.08;;
68455;SDS011;55437;55.046;38.838;2022-08-03T10:24:37;6.82;;;3.03;;
68455;SDS011;55437;55.046;38.838;2022-08-03T10:27:07;7.60;;;3.13;;
68455;SDS011;55437;55.046;38.838;2022-08-03T10:29:40;12.90;;;6.20;;
68455;SDS011;55437;55.046;38.838;2022-08-03T10:32:13;10.25;;;3.35;;
68455;SDS011;55437;55.046;38.838;2022-08-03T10:34:43;10.07;;;3.80;;
68455;SDS011;55437;55.046;38.838;2022-08-03T10:37:10;10.60;;;3.83;;
68455;SDS011;55437;55.046;38.838;2022-08-03T10:39:39;7.03;;;2.80;;
68455;SDS011;55437;55.046;38.838;2022-08-03T10:42:22;7.55;;;2.63;;
68455;SDS011;55437;55.046;38.838;2022-08-03T10:44:50;7.32;;;2.65;;
68455;SDS011;55437;55.046;38.838;2022-08-03T10:47:20;9.63;;;3.58;;
68455;SDS011;55437;55.046;38.838;2022-08-03T10:49:47;7.93;;;2.95;;
68455;SDS011;55437;55.046;38.838;2022-08-03T10:52:14;8.07;;;2.70;;
68455;SDS011;55437;55.046;38.838;2022-08-03T10:54:41;8.60;;;3.13;;
68455;SDS011;55437;55.046;38.838;2022-08-03T10:57:41;11.45;;;4.78;;
68455;SDS011;55437;55.046;38.838;2022-08-03T11:00:09;7.50;;;2.88;;
68455;SDS011;55437;55.046;38.838;2022-08-03T11:05:52;7.88;;;2.60;;
68455;SDS011;55437;55.046;38.838;2022-08-03T11:08:22;11.57;;;2.63;;
68455;SDS011;55437;55.046;38.838;2022-08-03T11:10:50;8.43;;;3.28;;
68455;SDS011;55437;55.046;38.838;2022-08-03T11:13:21;12.70;;;3.20;;
68455;SDS011;55437;55.046;38.838;2022-08-03T11:15:49;10.32;;;3.50;;
68455;SDS011;55437;55.046;38.838;2022-08-03T11:18:17;7.53;;;2.88;;
68455;SDS011;55437;55.046;38.838;2022-08-03T11:23:10;8.32;;;2.92;;
68455;SDS011;55437;55.046;38.838;2022-08-03T11:28:34;10.23;;;2.80;;
68455;SDS011;55437;55.046;38.838;2022-08-03T11:34:06;7.90;;;2.85;;
68455;SDS011;55437;55.046;38.838;2022-08-03T11:39:40;9.48;;;3.10;;
68455;SDS011;55437;55.046;38.838;2022-08-03T11:45:07;8.02;;;2.70;;
68455;SDS011;55437;55.046;38.838;2022-08-03T11:47:35;7.88;;;3.17;;
68455;SDS011;55437;55.046;38.838;2022-08-03T11:50:03;8.02;;;2.90;;
68455;SDS011;55437;55.046;38.838;2022-08-03T11:52:33;8.23;;;3.20;;
68455;SDS011;55437;55.046;38.838;2022-08-03T11:55:00;8.10;;;2.97;;
68455;SDS011;55437;55.046;38.838;2022-08-03T11:57:31;9.27;;;3.55;;
68455;SDS011;55437;55.046;38.838;2022-08-03T11:59:59;12.55;;;5.68;;
68455;SDS011;55437;55.046;38.838;2022-08-03T12:02:25;9.27;;;3.85;;
68455;SDS011;55437;55.046;38.838;2022-08-03T12:04:57;10.57;;;4.40;;
68455;SDS011;55437;55.046;38.838;2022-08-03T12:07:28;8.25;;;3.67;;
68455;SDS011;55437;55.046;38.838;2022-08-03T12:12:32;7.95;;;3.35;;
68455;SDS011;55437;55.046;38.838;2022-08-03T12:14:58;7.85;;;3.15;;
68455;SDS011;55437;55.046;38.838;2022-08-03T12:17:31;7.90;;;3.28;;
68455;SDS011;55437;55.046;38.838;2022-08-03T12:19:59;7.60;;;2.65;;
68455;SDS011;55437;55.046;38.838;2022-08-03T12:22:32;6.53;;;2.70;;
68455;SDS011;55437;55.046;38.838;2022-08-03T12:25:03;6.43;;;2.63;;
68455;SDS011;55437;55.046;38.838;2022-08-03T12:27:33;8.23;;;2.83;;
68455;SDS011;55437;55.046;38.838;2022-08-03T12:30:00;9.90;;;4.40;;
68455;SDS011;55437;55.046;38.838;2022-08-03T12:32:27;10.27;;;3.00;;
68455;SDS011;55437;55.046;38.838;2022-08-03T12:34:54;8.02;;;3.15;;
68455;SDS011;55437;55.046;38.838;2022-08-03T12:37:25;7.30;;;3.00;;
68455;SDS011;55437;55.046;38.838;2022-08-03T12:39:51;8.70;;;2.72;;
68455;SDS011;55437;55.046;38.838;2022-08-03T12:42:19;7.22;;;2.97;;
68455;SDS011;55437;55.046;38.838;2022-08-03T12:44:45;7.53;;;3.35;;
68455;SDS011;55437;55.046;38.838;2022-08-03T12:47:13;10.00;;;2.95;;
68455;SDS011;55437;55.046;38.838;2022-08-03T12:49:58;9.80;;;3.03;;
68455;SDS011;55437;55.046;38.838;2022-08-03T12:52:24;8.23;;;3.35;;
68455;SDS011;55437;55.046;38.838;2022-08-03T12:54:59;7.78;;;3.53;;
68455;SDS011;55437;55.046;38.838;2022-08-03T12:57:42;6.82;;;3.30;;
68455;SDS011;55437;55.046;38.838;2022-08-03T13:00:11;7.18;;;2.80;;
68455;SDS011;55437;55.046;38.838;2022-08-03T13:02:38;11.38;;;3.03;;
68455;SDS011;55437;55.046;38.838;2022-08-03T13:05:13;8.77;;;3.33;;
68455;SDS011;55437;55.046;38.838;2022-08-03T13:07:40;7.53;;;2.85;;
68455;SDS011;55437;55.046;38.838;2022-08-03T13:10:07;8.02;;;2.95;;
68455;SDS011;55437;55.046;38.838;2022-08-03T13:12:46;6.30;;;2.70;;
68455;SDS011;55437;55.046;38.838;2022-08-03T13:15:13;7.78;;;3.00;;
68455;SDS011;55437;55.046;38.838;2022-08-03T13:17:42;6.78;;;3.08;;
68455;SDS011;55437;55.046;38.838;2022-08-03T13:20:07;6.90;;;3.00;;
68455;SDS011;55437;55.046;38.838;2022-08-03T13:22:33;6.43;;;2.75;;
68455;SDS011;55437;55.046;38.838;2022-08-03T13:24:59;7.22;;;3.08;;
68455;SDS011;55437;55.046;38.838;2022-08-03T13:27:28;7.50;;;3.40;;
68455;SDS011;55437;55.046;38.838;2022-08-03T13:29:54;7.18;;;2.70;;
68455;SDS011;55437;55.046;38.838;2022-08-03T13:32:21;6.70;;;3.08;;
68455;SDS011;55437;55.046;38.838;2022-08-03T13:34:47;6.88;;;3.00;;
68455;SDS011;55437;55.046;38.838;2022-08-03T13:37:13;9.23;;;2.92;;
68455;SDS011;55437;55.046;38.838;2022-08-03T13:39:40;9.70;;;2.78;;
68455;SDS011;55437;55.046;38.838;2022-08-03T13:42:06;6.90;;;3.20;;
68455;SDS011;55437;55.046;38.838;2022-08-03T13:44:32;7.13;;;3.20;;
68455;SDS011;55437;55.046;38.838;2022-08-03T13:46:58;8.10;;;3.17;;
68455;SDS011;55437;55.046;38.838;2022-08-03T13:49:25;7.88;;;3.25;;
68455;SDS011;55437;55.046;38.838;2022-08-03T13:51:51;9.18;;;3.22;;
68455;SDS011;55437;55.046;38.838;2022-08-03T13:54:17;8.43;;;3.60;;
68455;SDS011;55437;55.046;38.838;2022-08-03T13:56:43;9.27;;;3.97;;
68455;SDS011;55437;55.046;38.838;2022-08-03T13:59:20;10.77;;;3.00;;
68455;SDS011;55437;55.046;38.838;2022-08-03T14:01:47;9.10;;;3.67;;
68455;SDS011;55437;55.046;38.838;2022-08-03T14:04:14;7.50;;;3.20;;
68455;SDS011;55437;55.046;38.838;2022-08-03T14:06:40;6.53;;;2.78;;
68455;SDS011;55437;55.046;38.838;2022-08-03T14:11:34;6.90;;;2.83;;
68455;SDS011;55437;55.046;38.838;2022-08-03T14:13:59;7.65;;;2.85;;
68455;SDS011;55437;55.046;38.838;2022-08-03T14:16:25;7.07;;;3.20;;
68455;SDS011;55437;55.046;38.838;2022-08-03T14:18:51;6.20;;;2.70;;
68455;SDS011;55437;55.046;38.838;2022-08-03T14:21:17;6.78;;;2.80;;
68455;SDS011;55437;55.046;38.838;2022-08-03T14:23:43;7.80;;;2.90;;
68455;SDS011;55437;55.046;38.838;2022-08-03T14:26:08;7.70;;;2.60;;
68455;SDS011;55437;55.046;38.838;2022-08-03T14:28:36;9.02;;;3.15;;
68455;SDS011;55437;55.046;38.838;2022-08-03T14:31:02;7.22;;;2.92;;
68455;SDS011;55437;55.046;38.838;2022-08-03T14:33:28;11.85;;;4.90;;
68455;SDS011;55437;55.046;38.838;2022-08-03T14:36:13;8.30;;;3.55;;
68455;SDS011;55437;55.046;38.838;2022-08-03T14:38:39;7.38;;;2.80;;
68455;SDS011;55437;55.046;38.838;2022-08-03T14:41:04;6.57;;;3.00;;
68455;SDS011;55437;55.046;38.838;2022-08-03T14:43:31;8.63;;;3.30;;
68455;SDS011;55437;55.046;38.838;2022-08-03T14:45:56;6.97;;;3.15;;
68455;SDS011;55437;55.046;38.838;2022-08-03T14:48:22;8.32;;;2.80;;
68455;SDS011;55437;55.046;38.838;2022-08-03T14:50:52;6.82;;;2.65;;
68455;SDS011;55437;55.046;38.838;2022-08-03T14:53:19;8.48;;;2.80;;
68455;SDS011;55437;55.046;38.838;2022-08-03T14:55:45;7.38;;;3.25;;
68455;SDS011;55437;55.046;38.838;2022-08-03T14:58:16;6.70;;;2.80;;
68455;SDS011;55437;55.046;38.838;2022-08-03T15:00:43;8.32;;;4.05;;
68455;SDS011;55437;55.046;38.838;2022-08-03T15:03:09;6.40;;;2.50;;
68455;SDS011;55437;55.046;38.838;2022-08-03T15:05:34;8.25;;;2.95;;
68455;SDS011;55437;55.046;38.838;2022-08-03T15:08:00;9.35;;;2.85;;
68455;SDS011;55437;55.046;38.838;2022-08-03T15:10:26;7.68;;;3.45;;
68455;SDS011;55437;55.046;38.838;2022-08-03T15:12:52;8.38;;;3.05;;
68455;SDS011;55437;55.046;38.838;2022-08-03T15:15:22;7.38;;;2.67;;
68455;SDS011;55437;55.046;38.838;2022-08-03T15:17:48;8.13;;;3.13;;
68455;SDS011;55437;55.046;38.838;2022-08-03T15:20:17;7.60;;;3.30;;
68455;SDS011;55437;55.046;38.838;2022-08-03T15:22:42;7.10;;;3.00;;
68455;SDS011;55437;55.046;38.838;2022-08-03T15:25:08;9.15;;;3.72;;